sensor_id;sensor_type;location;lat;lon;timestamp;P1;durP1;ratioP1;P2;durP2;ratioP2
80868;SDS011;70295;40.182;44.498;2023-05-29T00:00:41;20.3;;;6.6;;
80868;SDS011;70295;40.182;44.498;2023-05-29T00:15:16;20.4;;;6.7;;
80868;SDS011;70295;40.182;44.498;2023-05-29T00:16:16;21.1;;;6.5;;
80868;SDS011;70295;40.182;44.498;2023-05-29T00:17:16;18.4;;;6;;
80868;SDS011;70295;40.182;44.498;2023-05-29T00:18:18;21.3;;;6.8;;
80868;SDS011;70295;40.182;44.498;2023-05-29T00:19:16;18.4;;;6.4;;
80868;SDS011;70295;40.182;44.498;2023-05-29T00:20:17;19.1;;;7.1;;
80868;SDS011;70295;40.182;44.498;2023-05-29T00:21:16;18.6;;;5.8;;
80868;SDS011;70295;40.182;44.498;2023-05-29T00:22:17;21.1;;;7;;
80868;SDS011;70295;40.182;44.498;2023-05-29T00:23:18;20;;;6;;
80868;SDS011;70295;40.182;44.498;2023-05-29T00:26:09;17.7;;;5.9;;
80868;SDS011;70295;40.182;44.498;2023-05-29T00:27:08;18.6;;;5.7;;
80868;SDS011;70295;40.182;44.498;2023-05-29T00:28:09;19.6;;;6.5;;
80868;SDS011;70295;40.182;44.498;2023-05-29T00:29:08;14.9;;;5.3;;
80868;SDS011;70295;40.182;44.498;2023-05-29T00:30:08;18.2;;;6.1;;
80868;SDS011;70295;40.182;44.498;2023-05-29T00:31:08;20.4;;;6.4;;
80868;SDS011;70295;40.182;44.498;2023-05-29T00:32:08;18.8;;;5.6;;
80868;SDS011;70295;40.182;44.498;2023-05-29T00:33:08;17.3;;;6;;
80868;SDS011;70295;40.182;44.498;2023-05-29T00:35:08;17.8;;;6;;
80868;SDS011;70295;40.182;44.498;2023-05-29T00:36:08;16;;;6;;
80868;SDS011;70295;40.182;44.498;2023-05-29T00:37:08;16.3;;;5.6;;
80868;SDS011;70295;40.182;44.498;2023-05-29T00:38:08;19.2;;;6;;
80868;SDS011;70295;40.182;44.498;2023-05-29T00:39:08;19.7;;;5.7;;
80868;SDS011;70295;40.182;44.498;2023-05-29T00:40:08;19.3;;;6.2;;
80868;SDS011;70295;40.182;44.498;2023-05-29T00:41:08;18.7;;;6.4;;
80868;SDS011;70295;40.182;44.498;2023-05-29T00:48:52;15.7;;;6.1;;
80868;SDS011;70295;40.182;44.498;2023-05-29T01:03:44;16.5;;;6;;
80868;SDS011;70295;40.182;44.498;2023-05-29T01:04:45;17.9;;;6.2;;
80868;SDS011;70295;40.182;44.498;2023-05-29T01:05:43;19.6;;;6.2;;
80868;SDS011;70295;40.182;44.498;2023-05-29T01:06:44;19.1;;;6.7;;
80868;SDS011;70295;40.182;44.498;2023-05-29T01:07:43;19;;;6.4;;
80868;SDS011;70295;40.182;44.498;2023-05-29T01:08:43;20.6;;;6;;
80868;SDS011;70295;40.182;44.498;2023-05-29T01:09:43;16.1;;;6;;
80868;SDS011;70295;40.182;44.498;2023-05-29T01:10:44;16.8;;;6;;
80868;SDS011;70295;40.182;44.498;2023-05-29T01:13:24;20.7;;;6.3;;
80868;SDS011;70295;40.182;44.498;2023-05-29T01:14:00;18.9;;;6.9;;
80868;SDS011;70295;40.182;44.498;2023-05-29T01:27:29;19.2;;;6.3;;
80868;SDS011;70295;40.182;44.498;2023-05-29T01:30:11;19.9;;;6.1;;
80868;SDS011;70295;40.182;44.498;2023-05-29T01:31:10;20.6;;;6.7;;
80868;SDS011;70295;40.182;44.498;2023-05-29T01:32:09;17.9;;;6.2;;
80868;SDS011;70295;40.182;44.498;2023-05-29T01:33:10;19.2;;;6.2;;
80868;SDS011;70295;40.182;44.498;2023-05-29T01:34:09;18.6;;;5.9;;
80868;SDS011;70295;40.182;44.498;2023-05-29T01:35:09;17.3;;;6.1;;
80868;SDS011;70295;40.182;44.498;2023-05-29T01:36:09;19;;;5.7;;
80868;SDS011;70295;40.182;44.498;2023-05-29T01:37:09;18.3;;;5.7;;
80868;SDS011;70295;40.182;44.498;2023-05-29T01:38:09;20.8;;;6.2;;
80868;SDS011;70295;40.182;44.498;2023-05-29T01:39:10;18.1;;;6;;
80868;SDS011;70295;40.182;44.498;2023-05-29T01:40:09;18.2;;;6.1;;
80868;SDS011;70295;40.182;44.498;2023-05-29T01:41:09;19.9;;;6.2;;
80868;SDS011;70295;40.182;44.498;2023-05-29T01:42:10;20.2;;;6.7;;
80868;SDS011;70295;40.182;44.498;2023-05-29T01:43:10;19.7;;;6.6;;
80868;SDS011;70295;40.182;44.498;2023-05-29T01:44:09;19.3;;;6.7;;
80868;SDS011;70295;40.182;44.498;2023-05-29T01:45:10;17.6;;;6.2;;
80868;SDS011;70295;40.182;44.498;2023-05-29T01:46:09;20.4;;;6.4;;
80868;SDS011;70295;40.182;44.498;2023-05-29T01:47:09;19.8;;;6.5;;
80868;SDS011;70295;40.182;44.498;2023-05-29T01:48:09;18.8;;;6.3;;
80868;SDS011;70295;40.182;44.498;2023-05-29T01:49:11;22.4;;;6.2;;
80868;SDS011;70295;40.182;44.498;2023-05-29T01:50:11;17.5;;;7.1;;
80868;SDS011;70295;40.182;44.498;2023-05-29T01:51:00;19.6;;;6.6;;
80868;SDS011;70295;40.182;44.498;2023-05-29T01:52:00;15.8;;;6.5;;
80868;SDS011;70295;40.182;44.498;2023-05-29T01:53:00;17.8;;;6.1;;
80868;SDS011;70295;40.182;44.498;2023-05-29T01:54:00;19.1;;;6.4;;
80868;SDS011;70295;40.182;44.498;2023-05-29T01:55:00;20;;;6.5;;
80868;SDS011;70295;40.182;44.498;2023-05-29T01:56:01;18.1;;;6.4;;
80868;SDS011;70295;40.182;44.498;2023-05-29T01:57:00;18.2;;;6.7;;
80868;SDS011;70295;40.182;44.498;2023-05-29T01:58:01;22;;;6.9;;
80868;SDS011;70295;40.182;44.498;2023-05-29T01:59:02;18.8;;;6.1;;
80868;SDS011;70295;40.182;44.498;2023-05-29T02:00:00;17.6;;;6.3;;
80868;SDS011;70295;40.182;44.498;2023-05-29T02:01:01;19.8;;;6.9;;
80868;SDS011;70295;40.182;44.498;2023-05-29T02:02:54;20.3;;;6.4;;
80868;SDS011;70295;40.182;44.498;2023-05-29T02:03:54;17.6;;;6.7;;
80868;SDS011;70295;40.182;44.498;2023-05-29T02:04:54;17;;;6.7;;
80868;SDS011;70295;40.182;44.498;2023-05-29T02:05:55;17.7;;;6.3;;
80868;SDS011;70295;40.182;44.498;2023-05-29T02:06:54;19.5;;;6.5;;
80868;SDS011;70295;40.182;44.498;2023-05-29T02:07:54;21.7;;;7;;
80868;SDS011;70295;40.182;44.498;2023-05-29T02:08:54;18.8;;;7.8;;
80868;SDS011;70295;40.182;44.498;2023-05-29T02:09:54;22.8;;;7.4;;
80868;SDS011;70295;40.182;44.498;2023-05-29T02:10:54;20.1;;;7.7;;
80868;SDS011;70295;40.182;44.498;2023-05-29T02:11:54;17.2;;;8.4;;
80868;SDS011;70295;40.182;44.498;2023-05-29T02:12:54;22.1;;;8.1;;
80868;SDS011;70295;40.182;44.498;2023-05-29T02:13:54;20.2;;;8.1;;
80868;SDS011;70295;40.182;44.498;2023-05-29T02:14:54;24.1;;;8.7;;
80868;SDS011;70295;40.182;44.498;2023-05-29T02:15:54;22.5;;;8.7;;
80868;SDS011;70295;40.182;44.498;2023-05-29T02:16:54;21;;;8.7;;
80868;SDS011;70295;40.182;44.498;2023-05-29T02:17:54;19.9;;;7.7;;
80868;SDS011;70295;40.182;44.498;2023-05-29T02:18:54;20.7;;;7.6;;
80868;SDS011;70295;40.182;44.498;2023-05-29T02:19:54;23;;;8.5;;
80868;SDS011;70295;40.182;44.498;2023-05-29T02:20:54;22.5;;;8.8;;
80868;SDS011;70295;40.182;44.498;2023-05-29T02:21:54;19.1;;;8.3;;
80868;SDS011;70295;40.182;44.498;2023-05-29T02:22:54;19.9;;;8.1;;
80868;SDS011;70295;40.182;44.498;2023-05-29T02:23:54;17.7;;;7.6;;
80868;SDS011;70295;40.182;44.498;2023-05-29T02:24:54;23;;;9;;
80868;SDS011;70295;40.182;44.498;2023-05-29T02:25:55;23;;;9;;
80868;SDS011;70295;40.182;44.498;2023-05-29T02:26:54;22.1;;;8.1;;
80868;SDS011;70295;40.182;44.498;2023-05-29T02:27:54;17.9;;;8.4;;
80868;SDS011;70295;40.182;44.498;2023-05-29T02:28:53;18.8;;;7.7;;
80868;SDS011;70295;40.182;44.498;2023-05-29T02:29:54;23.4;;;8.2;;
80868;SDS011;70295;40.182;44.498;2023-05-29T02:30:54;20.6;;;8.1;;
80868;SDS011;70295;40.182;44.498;2023-05-29T02:31:54;18.6;;;7.6;;
80868;SDS011;70295;40.182;44.498;2023-05-29T02:32:54;19.9;;;8;;
80868;SDS011;70295;40.182;44.498;2023-05-29T02:33:54;24.3;;;7.8;;
80868;SDS011;70295;40.182;44.498;2023-05-29T02:34:54;21.3;;;8.6;;
80868;SDS011;70295;40.182;44.498;2023-05-29T02:35:54;19.7;;;7.7;;
80868;SDS011;70295;40.182;44.498;2023-05-29T02:36:53;21.1;;;7.2;;
80868;SDS011;70295;40.182;44.498;2023-05-29T02:37:54;22.9;;;7.8;;
80868;SDS011;70295;40.182;44.498;2023-05-29T02:38:54;18.9;;;7.8;;
80868;SDS011;70295;40.182;44.498;2023-05-29T02:39:54;21.5;;;8.2;;
80868;SDS011;70295;40.182;44.498;2023-05-29T02:40:54;22.9;;;8.9;;
80868;SDS011;70295;40.182;44.498;2023-05-29T02:41:54;15.6;;;7.3;;
80868;SDS011;70295;40.182;44.498;2023-05-29T02:42:54;20.6;;;7.5;;
80868;SDS011;70295;40.182;44.498;2023-05-29T02:43:54;18.6;;;8.4;;
80868;SDS011;70295;40.182;44.498;2023-05-29T02:44:54;21.8;;;7.1;;
80868;SDS011;70295;40.182;44.498;2023-05-29T02:45:54;22.1;;;8.4;;
80868;SDS011;70295;40.182;44.498;2023-05-29T02:46:54;21.1;;;8.1;;
80868;SDS011;70295;40.182;44.498;2023-05-29T02:47:54;19.8;;;8.1;;
80868;SDS011;70295;40.182;44.498;2023-05-29T02:48:54;21.6;;;8.4;;
80868;SDS011;70295;40.182;44.498;2023-05-29T02:49:54;18.6;;;7.8;;
80868;SDS011;70295;40.182;44.498;2023-05-29T02:50:54;19.2;;;8.2;;
80868;SDS011;70295;40.182;44.498;2023-05-29T02:51:54;20;;;8.4;;
80868;SDS011;70295;40.182;44.498;2023-05-29T02:52:54;20.9;;;8.4;;
80868;SDS011;70295;40.182;44.498;2023-05-29T02:53:54;22.5;;;8.1;;
80868;SDS011;70295;40.182;44.498;2023-05-29T02:54:54;20.1;;;8.2;;
80868;SDS011;70295;40.182;44.498;2023-05-29T02:55:54;23.9;;;8.2;;
80868;SDS011;70295;40.182;44.498;2023-05-29T02:56:54;21.9;;;8.2;;
80868;SDS011;70295;40.182;44.498;2023-05-29T02:57:54;22.2;;;7.9;;
80868;SDS011;70295;40.182;44.498;2023-05-29T02:58:54;20;;;8.3;;
80868;SDS011;70295;40.182;44.498;2023-05-29T02:59:54;19.9;;;8.1;;
80868;SDS011;70295;40.182;44.498;2023-05-29T03:00:54;18.7;;;7.9;;
80868;SDS011;70295;40.182;44.498;2023-05-29T03:01:54;20.1;;;8.4;;
80868;SDS011;70295;40.182;44.498;2023-05-29T03:02:54;20.6;;;8;;
80868;SDS011;70295;40.182;44.498;2023-05-29T03:03:53;21.7;;;8.2;;
80868;SDS011;70295;40.182;44.498;2023-05-29T03:04:53;20.9;;;8.2;;
80868;SDS011;70295;40.182;44.498;2023-05-29T03:05:54;19.8;;;8.6;;
80868;SDS011;70295;40.182;44.498;2023-05-29T03:06:53;18.5;;;7.7;;
80868;SDS011;70295;40.182;44.498;2023-05-29T03:07:53;18.8;;;8.4;;
80868;SDS011;70295;40.182;44.498;2023-05-29T03:08:54;18.4;;;8;;
80868;SDS011;70295;40.182;44.498;2023-05-29T03:09:55;19.8;;;8.1;;
80868;SDS011;70295;40.182;44.498;2023-05-29T03:10:54;21.3;;;8.2;;
80868;SDS011;70295;40.182;44.498;2023-05-29T03:11:54;22.4;;;9.4;;
80868;SDS011;70295;40.182;44.498;2023-05-29T03:12:54;23.3;;;8.3;;
80868;SDS011;70295;40.182;44.498;2023-05-29T03:13:53;20.1;;;8.4;;
80868;SDS011;70295;40.182;44.498;2023-05-29T03:14:54;19.5;;;7.9;;
80868;SDS011;70295;40.182;44.498;2023-05-29T03:15:54;20.2;;;8.4;;
80868;SDS011;70295;40.182;44.498;2023-05-29T03:16:54;20.5;;;8.3;;
80868;SDS011;70295;40.182;44.498;2023-05-29T03:17:54;18.9;;;8.4;;
80868;SDS011;70295;40.182;44.498;2023-05-29T03:18:54;20.7;;;8.2;;
80868;SDS011;70295;40.182;44.498;2023-05-29T03:19:54;19.4;;;8.5;;
80868;SDS011;70295;40.182;44.498;2023-05-29T03:20:54;20.6;;;8.6;;
80868;SDS011;70295;40.182;44.498;2023-05-29T03:21:54;19.4;;;7.8;;
80868;SDS011;70295;40.182;44.498;2023-05-29T03:22:54;19.4;;;8.3;;
80868;SDS011;70295;40.182;44.498;2023-05-29T03:23:54;21.9;;;8.8;;
80868;SDS011;70295;40.182;44.498;2023-05-29T03:24:54;22.1;;;8.4;;
80868;SDS011;70295;40.182;44.498;2023-05-29T03:25:53;21.3;;;8.2;;
80868;SDS011;70295;40.182;44.498;2023-05-29T03:26:53;20.7;;;7.7;;
80868;SDS011;70295;40.182;44.498;2023-05-29T03:27:53;18.6;;;8.2;;
80868;SDS011;70295;40.182;44.498;2023-05-29T03:28:54;19;;;8;;
80868;SDS011;70295;40.182;44.498;2023-05-29T03:29:53;19;;;7.6;;
80868;SDS011;70295;40.182;44.498;2023-05-29T03:30:54;19.8;;;8.1;;
80868;SDS011;70295;40.182;44.498;2023-05-29T03:31:54;21.7;;;7.1;;
80868;SDS011;70295;40.182;44.498;2023-05-29T03:32:53;22.4;;;7.5;;
80868;SDS011;70295;40.182;44.498;2023-05-29T03:33:55;18.7;;;7.4;;
80868;SDS011;70295;40.182;44.498;2023-05-29T03:34:53;21.6;;;7.2;;
80868;SDS011;70295;40.182;44.498;2023-05-29T03:35:53;20.3;;;7.8;;
80868;SDS011;70295;40.182;44.498;2023-05-29T03:36:54;20.8;;;8.1;;
80868;SDS011;70295;40.182;44.498;2023-05-29T03:37:54;21.2;;;7.3;;
80868;SDS011;70295;40.182;44.498;2023-05-29T03:38:53;23.1;;;7.7;;
80868;SDS011;70295;40.182;44.498;2023-05-29T03:39:54;22.4;;;7.1;;
80868;SDS011;70295;40.182;44.498;2023-05-29T03:40:54;19.7;;;7.4;;
80868;SDS011;70295;40.182;44.498;2023-05-29T03:41:54;20.1;;;7.1;;
80868;SDS011;70295;40.182;44.498;2023-05-29T03:42:54;18.9;;;8.1;;
80868;SDS011;70295;40.182;44.498;2023-05-29T03:43:53;19.9;;;6.6;;
80868;SDS011;70295;40.182;44.498;2023-05-29T03:44:54;19.5;;;6.7;;
80868;SDS011;70295;40.182;44.498;2023-05-29T03:45:54;19.3;;;7.3;;
80868;SDS011;70295;40.182;44.498;2023-05-29T03:46:54;18.3;;;7.7;;
80868;SDS011;70295;40.182;44.498;2023-05-29T03:47:54;26.3;;;7.2;;
80868;SDS011;70295;40.182;44.498;2023-05-29T03:48:54;23.1;;;7.2;;
80868;SDS011;70295;40.182;44.498;2023-05-29T03:49:54;25.6;;;7.9;;
80868;SDS011;70295;40.182;44.498;2023-05-29T03:50:54;20.8;;;7.7;;
80868;SDS011;70295;40.182;44.498;2023-05-29T03:51:54;21.9;;;8;;
80868;SDS011;70295;40.182;44.498;2023-05-29T03:52:54;19.4;;;7.2;;
80868;SDS011;70295;40.182;44.498;2023-05-29T03:53:54;22;;;7;;
80868;SDS011;70295;40.182;44.498;2023-05-29T03:54:54;17.4;;;7.1;;
80868;SDS011;70295;40.182;44.498;2023-05-29T03:55:54;20.8;;;6.8;;
80868;SDS011;70295;40.182;44.498;2023-05-29T03:56:54;16.9;;;6.7;;
80868;SDS011;70295;40.182;44.498;2023-05-29T03:57:54;20.8;;;6.6;;
80868;SDS011;70295;40.182;44.498;2023-05-29T03:58:54;18.4;;;6.1;;
80868;SDS011;70295;40.182;44.498;2023-05-29T03:59:54;19.2;;;6.8;;
80868;SDS011;70295;40.182;44.498;2023-05-29T04:00:54;18;;;6.8;;
80868;SDS011;70295;40.182;44.498;2023-05-29T04:01:54;18.5;;;6.8;;
80868;SDS011;70295;40.182;44.498;2023-05-29T04:02:55;21.1;;;7.7;;
80868;SDS011;70295;40.182;44.498;2023-05-29T04:03:53;17.8;;;7.1;;
80868;SDS011;70295;40.182;44.498;2023-05-29T04:04:54;20.6;;;7.8;;
80868;SDS011;70295;40.182;44.498;2023-05-29T04:05:54;19.1;;;7.5;;
80868;SDS011;70295;40.182;44.498;2023-05-29T04:06:53;19.6;;;7.3;;
80868;SDS011;70295;40.182;44.498;2023-05-29T04:07:54;22.8;;;7.5;;
80868;SDS011;70295;40.182;44.498;2023-05-29T04:08:54;17.7;;;6.8;;
80868;SDS011;70295;40.182;44.498;2023-05-29T04:09:53;22.9;;;7.5;;
80868;SDS011;70295;40.182;44.498;2023-05-29T04:10:54;21.3;;;7;;
80868;SDS011;70295;40.182;44.498;2023-05-29T04:11:54;18.8;;;7.4;;
80868;SDS011;70295;40.182;44.498;2023-05-29T04:12:54;18.3;;;7.7;;
80868;SDS011;70295;40.182;44.498;2023-05-29T04:13:54;18.3;;;7.4;;
80868;SDS011;70295;40.182;44.498;2023-05-29T04:14:54;23.7;;;7.4;;
80868;SDS011;70295;40.182;44.498;2023-05-29T04:15:54;20.7;;;8.1;;
80868;SDS011;70295;40.182;44.498;2023-05-29T04:16:53;21.4;;;8.3;;
80868;SDS011;70295;40.182;44.498;2023-05-29T04:17:54;23.7;;;8.3;;
80868;SDS011;70295;40.182;44.498;2023-05-29T04:18:54;20.1;;;7.8;;
80868;SDS011;70295;40.182;44.498;2023-05-29T04:19:53;23;;;7.9;;
80868;SDS011;70295;40.182;44.498;2023-05-29T04:20:54;21;;;8.5;;
80868;SDS011;70295;40.182;44.498;2023-05-29T04:21:53;24.7;;;8.1;;
80868;SDS011;70295;40.182;44.498;2023-05-29T04:22:54;23;;;8.1;;
80868;SDS011;70295;40.182;44.498;2023-05-29T04:23:54;20.9;;;7.9;;
80868;SDS011;70295;40.182;44.498;2023-05-29T04:24:53;20.2;;;7.4;;
80868;SDS011;70295;40.182;44.498;2023-05-29T04:25:54;17.9;;;7.7;;
80868;SDS011;70295;40.182;44.498;2023-05-29T04:26:53;20.3;;;7.7;;
80868;SDS011;70295;40.182;44.498;2023-05-29T04:27:54;25.6;;;8.2;;
80868;SDS011;70295;40.182;44.498;2023-05-29T04:28:53;22.4;;;8;;
80868;SDS011;70295;40.182;44.498;2023-05-29T04:29:53;22.7;;;8.2;;
80868;SDS011;70295;40.182;44.498;2023-05-29T04:30:54;22.1;;;7.6;;
80868;SDS011;70295;40.182;44.498;2023-05-29T04:31:54;23.5;;;7.5;;
80868;SDS011;70295;40.182;44.498;2023-05-29T04:32:54;22;;;7.3;;
80868;SDS011;70295;40.182;44.498;2023-05-29T04:33:56;19.3;;;6.6;;
80868;SDS011;70295;40.182;44.498;2023-05-29T04:34:58;19.5;;;7.4;;
80868;SDS011;70295;40.182;44.498;2023-05-29T04:35:48;22.8;;;7.8;;
80868;SDS011;70295;40.182;44.498;2023-05-29T04:36:48;20.7;;;7.2;;
80868;SDS011;70295;40.182;44.498;2023-05-29T04:37:48;20.6;;;7;;
80868;SDS011;70295;40.182;44.498;2023-05-29T04:38:48;17.7;;;7.7;;
80868;SDS011;70295;40.182;44.498;2023-05-29T04:39:48;19.7;;;7.3;;
80868;SDS011;70295;40.182;44.498;2023-05-29T04:40:47;17.1;;;7.2;;
80868;SDS011;70295;40.182;44.498;2023-05-29T04:41:48;20;;;7.3;;
80868;SDS011;70295;40.182;44.498;2023-05-29T04:42:47;21.3;;;7.2;;
80868;SDS011;70295;40.182;44.498;2023-05-29T04:43:48;23.8;;;7.4;;
80868;SDS011;70295;40.182;44.498;2023-05-29T04:44:47;20.1;;;7.1;;
80868;SDS011;70295;40.182;44.498;2023-05-29T04:45:48;18.9;;;6.9;;
80868;SDS011;70295;40.182;44.498;2023-05-29T04:46:47;22.4;;;6.3;;
80868;SDS011;70295;40.182;44.498;2023-05-29T04:47:50;22.8;;;7.1;;
80868;SDS011;70295;40.182;44.498;2023-05-29T04:48:51;20.6;;;6;;
80868;SDS011;70295;40.182;44.498;2023-05-29T04:50:28;21.2;;;6.6;;
80868;SDS011;70295;40.182;44.498;2023-05-29T04:51:28;20.9;;;7;;
80868;SDS011;70295;40.182;44.498;2023-05-29T04:52:28;19.6;;;7;;
80868;SDS011;70295;40.182;44.498;2023-05-29T04:53:28;18.1;;;6.9;;
80868;SDS011;70295;40.182;44.498;2023-05-29T04:54:28;19.3;;;5.9;;
80868;SDS011;70295;40.182;44.498;2023-05-29T04:55:28;16.2;;;5.1;;
80868;SDS011;70295;40.182;44.498;2023-05-29T04:56:28;20;;;5.6;;
80868;SDS011;70295;40.182;44.498;2023-05-29T04:57:28;18.5;;;5.7;;
80868;SDS011;70295;40.182;44.498;2023-05-29T04:58:28;21.5;;;5.8;;
80868;SDS011;70295;40.182;44.498;2023-05-29T04:59:28;18.2;;;5.8;;
80868;SDS011;70295;40.182;44.498;2023-05-29T05:00:28;20.4;;;6.2;;
80868;SDS011;70295;40.182;44.498;2023-05-29T05:01:28;19.8;;;6.1;;
80868;SDS011;70295;40.182;44.498;2023-05-29T05:02:28;21;;;6.6;;
80868;SDS011;70295;40.182;44.498;2023-05-29T05:03:28;19.6;;;5.9;;
80868;SDS011;70295;40.182;44.498;2023-05-29T05:04:28;20.7;;;6.6;;
80868;SDS011;70295;40.182;44.498;2023-05-29T05:05:28;21;;;5.9;;
80868;SDS011;70295;40.182;44.498;2023-05-29T05:06:28;19.3;;;5.9;;
80868;SDS011;70295;40.182;44.498;2023-05-29T05:08:32;24.6;;;7.8;;
80868;SDS011;70295;40.182;44.498;2023-05-29T05:09:32;18;;;6.6;;
80868;SDS011;70295;40.182;44.498;2023-05-29T05:12:08;21;;;6.7;;
80868;SDS011;70295;40.182;44.498;2023-05-29T05:13:09;22.4;;;6.8;;
80868;SDS011;70295;40.182;44.498;2023-05-29T05:14:08;22.1;;;7.6;;
80868;SDS011;70295;40.182;44.498;2023-05-29T05:15:09;25.4;;;8.7;;
80868;SDS011;70295;40.182;44.498;2023-05-29T05:16:08;24.3;;;9.5;;
80868;SDS011;70295;40.182;44.498;2023-05-29T05:17:08;21.8;;;9.7;;
80868;SDS011;70295;40.182;44.498;2023-05-29T05:18:08;24;;;10.6;;
80868;SDS011;70295;40.182;44.498;2023-05-29T05:19:08;25;;;11.1;;
80868;SDS011;70295;40.182;44.498;2023-05-29T05:20:09;24.4;;;11.7;;
80868;SDS011;70295;40.182;44.498;2023-05-29T05:21:08;29.8;;;13.3;;
80868;SDS011;70295;40.182;44.498;2023-05-29T05:22:09;27.9;;;12.1;;
80868;SDS011;70295;40.182;44.498;2023-05-29T05:23:08;26;;;12.5;;
80868;SDS011;70295;40.182;44.498;2023-05-29T05:24:09;25.7;;;12.1;;
80868;SDS011;70295;40.182;44.498;2023-05-29T05:25:09;25.7;;;12.5;;
80868;SDS011;70295;40.182;44.498;2023-05-29T05:26:08;27.1;;;12.5;;
80868;SDS011;70295;40.182;44.498;2023-05-29T05:27:08;23.2;;;11.6;;
80868;SDS011;70295;40.182;44.498;2023-05-29T05:28:09;24.7;;;12;;
80868;SDS011;70295;40.182;44.498;2023-05-29T05:29:08;24.9;;;11.6;;
80868;SDS011;70295;40.182;44.498;2023-05-29T05:30:09;20.9;;;11.6;;
80868;SDS011;70295;40.182;44.498;2023-05-29T05:31:09;26.8;;;12;;
80868;SDS011;70295;40.182;44.498;2023-05-29T05:32:08;22.8;;;11.2;;
80868;SDS011;70295;40.182;44.498;2023-05-29T05:33:09;20.7;;;11.5;;
80868;SDS011;70295;40.182;44.498;2023-05-29T05:34:08;23.4;;;10.8;;
80868;SDS011;70295;40.182;44.498;2023-05-29T05:35:08;25.4;;;11;;
80868;SDS011;70295;40.182;44.498;2023-05-29T05:36:09;22.4;;;11.6;;
80868;SDS011;70295;40.182;44.498;2023-05-29T05:37:08;20.9;;;10.6;;
80868;SDS011;70295;40.182;44.498;2023-05-29T05:38:09;24.6;;;10.8;;
80868;SDS011;70295;40.182;44.498;2023-05-29T05:39:09;22.6;;;11.4;;
80868;SDS011;70295;40.182;44.498;2023-05-29T05:40:09;24.1;;;10.8;;
80868;SDS011;70295;40.182;44.498;2023-05-29T05:41:08;24.3;;;11.7;;
80868;SDS011;70295;40.182;44.498;2023-05-29T05:42:09;24.3;;;11.9;;
80868;SDS011;70295;40.182;44.498;2023-05-29T05:43:09;27;;;11.4;;
80868;SDS011;70295;40.182;44.498;2023-05-29T05:44:09;21.1;;;11.5;;
80868;SDS011;70295;40.182;44.498;2023-05-29T05:45:09;21.2;;;10.8;;
80868;SDS011;70295;40.182;44.498;2023-05-29T05:46:09;21.5;;;11.5;;
80868;SDS011;70295;40.182;44.498;2023-05-29T05:47:09;23.5;;;11.9;;
80868;SDS011;70295;40.182;44.498;2023-05-29T05:48:09;21.5;;;12.1;;
80868;SDS011;70295;40.182;44.498;2023-05-29T05:49:08;24.3;;;10.9;;
80868;SDS011;70295;40.182;44.498;2023-05-29T05:50:09;22.1;;;11.4;;
80868;SDS011;70295;40.182;44.498;2023-05-29T05:51:08;21.9;;;11.3;;
80868;SDS011;70295;40.182;44.498;2023-05-29T05:52:08;25.2;;;11;;
80868;SDS011;70295;40.182;44.498;2023-05-29T05:53:09;21.8;;;10.6;;
80868;SDS011;70295;40.182;44.498;2023-05-29T05:54:09;24.4;;;10.8;;
80868;SDS011;70295;40.182;44.498;2023-05-29T05:55:09;23.5;;;10.7;;
80868;SDS011;70295;40.182;44.498;2023-05-29T05:56:09;22.9;;;10.5;;
80868;SDS011;70295;40.182;44.498;2023-05-29T05:57:09;25.3;;;10;;
80868;SDS011;70295;40.182;44.498;2023-05-29T05:58:09;22.4;;;8.7;;
80868;SDS011;70295;40.182;44.498;2023-05-29T05:59:09;22;;;9.6;;
80868;SDS011;70295;40.182;44.498;2023-05-29T06:00:10;24.6;;;8.9;;
80868;SDS011;70295;40.182;44.498;2023-05-29T06:01:50;21.2;;;9;;
80868;SDS011;70295;40.182;44.498;2023-05-29T06:02:50;19.2;;;8.2;;
80868;SDS011;70295;40.182;44.498;2023-05-29T06:03:50;24.7;;;8.9;;
80868;SDS011;70295;40.182;44.498;2023-05-29T06:04:50;22.6;;;7.8;;
80868;SDS011;70295;40.182;44.498;2023-05-29T06:05:50;22.9;;;8.1;;
80868;SDS011;70295;40.182;44.498;2023-05-29T06:06:50;18.7;;;7.7;;
80868;SDS011;70295;40.182;44.498;2023-05-29T06:07:50;22.4;;;8.1;;
80868;SDS011;70295;40.182;44.498;2023-05-29T06:08:50;23.4;;;8.1;;
80868;SDS011;70295;40.182;44.498;2023-05-29T06:09:50;19.6;;;7.8;;
80868;SDS011;70295;40.182;44.498;2023-05-29T06:10:50;21.9;;;7.5;;
80868;SDS011;70295;40.182;44.498;2023-05-29T06:11:50;19.6;;;7.6;;
80868;SDS011;70295;40.182;44.498;2023-05-29T06:12:50;21.5;;;8.2;;
80868;SDS011;70295;40.182;44.498;2023-05-29T06:13:50;20.6;;;7.6;;
80868;SDS011;70295;40.182;44.498;2023-05-29T06:14:50;20.2;;;7.8;;
80868;SDS011;70295;40.182;44.498;2023-05-29T06:15:50;22.7;;;7.7;;
80868;SDS011;70295;40.182;44.498;2023-05-29T06:16:50;23.8;;;8.1;;
80868;SDS011;70295;40.182;44.498;2023-05-29T06:17:50;22.4;;;7.3;;
80868;SDS011;70295;40.182;44.498;2023-05-29T06:18:50;20.3;;;7.1;;
80868;SDS011;70295;40.182;44.498;2023-05-29T06:19:50;26.7;;;7.3;;
80868;SDS011;70295;40.182;44.498;2023-05-29T06:20:50;22.4;;;7.2;;
80868;SDS011;70295;40.182;44.498;2023-05-29T06:21:50;20.5;;;7.1;;
80868;SDS011;70295;40.182;44.498;2023-05-29T06:22:50;21;;;6.9;;
80868;SDS011;70295;40.182;44.498;2023-05-29T06:23:50;23.5;;;7.4;;
80868;SDS011;70295;40.182;44.498;2023-05-29T06:24:50;21.4;;;6.9;;
80868;SDS011;70295;40.182;44.498;2023-05-29T06:25:50;25.3;;;7.6;;
80868;SDS011;70295;40.182;44.498;2023-05-29T06:26:50;19.3;;;7;;
80868;SDS011;70295;40.182;44.498;2023-05-29T06:27:50;21.4;;;7.2;;
80868;SDS011;70295;40.182;44.498;2023-05-29T06:28:50;21.3;;;7;;
80868;SDS011;70295;40.182;44.498;2023-05-29T06:29:50;18.3;;;6.7;;
80868;SDS011;70295;40.182;44.498;2023-05-29T06:30:50;26.6;;;7.1;;
80868;SDS011;70295;40.182;44.498;2023-05-29T06:31:50;15.9;;;5.9;;
80868;SDS011;70295;40.182;44.498;2023-05-29T06:32:50;23.1;;;6.4;;
80868;SDS011;70295;40.182;44.498;2023-05-29T06:33:50;18.8;;;6.3;;
80868;SDS011;70295;40.182;44.498;2023-05-29T06:34:50;21;;;7.5;;
80868;SDS011;70295;40.182;44.498;2023-05-29T06:35:50;20.8;;;6.5;;
80868;SDS011;70295;40.182;44.498;2023-05-29T06:36:50;19.1;;;6.3;;
80868;SDS011;70295;40.182;44.498;2023-05-29T06:37:50;18.7;;;6.9;;
80868;SDS011;70295;40.182;44.498;2023-05-29T06:38:50;17;;;7.7;;
80868;SDS011;70295;40.182;44.498;2023-05-29T06:39:50;21.6;;;7;;
80868;SDS011;70295;40.182;44.498;2023-05-29T06:40:50;26.5;;;7.6;;
80868;SDS011;70295;40.182;44.498;2023-05-29T06:41:50;22.9;;;7.9;;
80868;SDS011;70295;40.182;44.498;2023-05-29T06:42:50;21.6;;;7.2;;
80868;SDS011;70295;40.182;44.498;2023-05-29T06:43:50;17.9;;;6.8;;
80868;SDS011;70295;40.182;44.498;2023-05-29T06:44:50;24.4;;;7.6;;
80868;SDS011;70295;40.182;44.498;2023-05-29T06:45:50;18.2;;;6.9;;
80868;SDS011;70295;40.182;44.498;2023-05-29T06:46:50;19.8;;;6.7;;
80868;SDS011;70295;40.182;44.498;2023-05-29T06:47:50;20.1;;;6.6;;
80868;SDS011;70295;40.182;44.498;2023-05-29T06:48:50;20.8;;;7.6;;
80868;SDS011;70295;40.182;44.498;2023-05-29T06:49:50;24.9;;;7.9;;
80868;SDS011;70295;40.182;44.498;2023-05-29T06:50:50;18.9;;;6.4;;
80868;SDS011;70295;40.182;44.498;2023-05-29T06:51:50;16.8;;;6.4;;
80868;SDS011;70295;40.182;44.498;2023-05-29T06:52:50;19.2;;;6.1;;
80868;SDS011;70295;40.182;44.498;2023-05-29T06:53:50;19.1;;;7;;
80868;SDS011;70295;40.182;44.498;2023-05-29T06:54:50;21.6;;;6.6;;
80868;SDS011;70295;40.182;44.498;2023-05-29T06:55:50;22.4;;;5.9;;
80868;SDS011;70295;40.182;44.498;2023-05-29T06:56:50;15.8;;;5.9;;
80868;SDS011;70295;40.182;44.498;2023-05-29T06:57:50;22.4;;;6.8;;
80868;SDS011;70295;40.182;44.498;2023-05-29T06:58:50;23.7;;;6.9;;
80868;SDS011;70295;40.182;44.498;2023-05-29T06:59:50;25.6;;;7.9;;